createdAt,value
2022-09-14T00:01:14.436Z,98734.19
2022-09-14T00:03:40.800Z,98737.06
2022-09-14T00:06:09.509Z,98764.50
2022-09-14T00:08:36.492Z,98746.53
2022-09-14T00:11:08.713Z,98753.16
2022-09-14T00:13:36.164Z,98750.56
2022-09-14T00:16:05.038Z,98754.22
2022-09-14T00:18:32.117Z,98759.34
2022-09-14T00:21:03.453Z,98742.97
2022-09-14T00:23:30.086Z,98747.09
2022-09-14T00:26:03.748Z,98753.25
2022-09-14T00:28:30.388Z,98744.56
2022-09-14T00:30:57.083Z,98753.75
2022-09-14T00:33:23.769Z,98759.84
2022-09-14T00:35:50.408Z,98753.00
2022-09-14T00:38:17.001Z,98757.56
2022-09-14T00:40:43.567Z,98754.59
2022-09-14T00:43:14.925Z,98757.31
2022-09-14T00:45:41.713Z,98755.69
2022-09-14T00:48:08.483Z,98751.22
2022-09-14T00:50:35.307Z,98748.69
2022-09-14T00:53:02.023Z,98743.34
2022-09-14T00:55:28.781Z,98761.41
2022-09-14T00:57:55.536Z,98757.13
2022-09-14T01:00:27.547Z,98760.69
2022-09-14T01:02:54.414Z,98757.88
2022-09-14T01:05:30.174Z,98750.03
2022-09-14T01:08:18.239Z,98749.19
2022-09-14T01:11:35.403Z,98752.38
2022-09-14T01:14:09.051Z,98746.97
2022-09-14T01:16:44.821Z,98746.09
2022-09-14T01:19:22.299Z,98747.63
2022-09-14T01:21:50.280Z,98746.50
2022-09-14T01:24:40.091Z,98740.59
2022-09-14T01:27:27.148Z,98737.03
2022-09-14T01:30:09.476Z,98723.09
2022-09-14T01:32:39.844Z,98727.84
2022-09-14T01:35:16.752Z,98737.03
2022-09-14T01:37:51.238Z,98740.59
2022-09-14T01:40:41.149Z,98736.22
2022-09-14T01:43:30.973Z,98731.81
2022-09-14T01:46:05.482Z,98738.66
2022-09-14T01:48:37.061Z,98724.31
2022-09-14T01:51:08.178Z,98720.78
2022-09-14T01:53:43.023Z,98729.19
2022-09-14T01:56:20.457Z,98731.53
2022-09-14T01:59:05.487Z,98728.66
2022-09-14T02:01:37.959Z,98720.13
2022-09-14T02:04:08.680Z,98726.84
2022-09-14T02:06:39.262Z,98720.50
2022-09-14T02:09:08.034Z,98704.41
2022-09-14T02:11:35.031Z,98708.44
2022-09-14T02:14:01.949Z,98701.69
2022-09-14T02:16:29.078Z,98696.75
2022-09-14T02:18:55.778Z,98714.69
2022-09-14T02:21:26.049Z,98707.78
2022-09-14T02:23:53.052Z,98709.53
2022-09-14T02:26:20.981Z,98720.50
2022-09-14T02:28:47.877Z,98696.91
2022-09-14T02:31:32.883Z,98710.22
2022-09-14T02:34:31.188Z,98703.00
2022-09-14T02:37:12.257Z,98706.72
2022-09-14T02:40:13.925Z,98702.34
2022-09-14T02:42:59.005Z,98699.75
2022-09-14T02:45:45.069Z,98696.06
2022-09-14T02:48:39.448Z,98689.25
2022-09-14T02:51:24.674Z,98693.63
2022-09-14T02:54:01.741Z,98686.91
2022-09-14T02:56:29.250Z,98693.72
2022-09-14T02:58:56.571Z,98685.13
2022-09-14T03:01:24.754Z,98684.38
2022-09-14T03:03:51.717Z,98683.47
2022-09-14T03:06:18.315Z,98684.28
2022-09-14T03:08:45.237Z,98682.13
2022-09-14T03:11:12.312Z,98684.94
2022-09-14T03:13:39.429Z,98675.19
2022-09-14T03:16:14.153Z,98697.84
2022-09-14T03:18:41.375Z,98686.53
2022-09-14T03:21:13.178Z,98693.34
2022-09-14T03:23:48.549Z,98678.22
2022-09-14T03:26:17.882Z,98682.31
2022-09-14T03:28:45.049Z,98679.69
2022-09-14T03:31:12.995Z,98679.53
2022-09-14T03:33:40.129Z,98664.16
2022-09-14T03:36:16.125Z,98664.63
2022-09-14T03:38:47.959Z,98656.13
2022-09-14T03:41:14.952Z,98661.28
2022-09-14T03:43:43.274Z,98668.13
2022-09-14T03:46:21.505Z,98658.66
2022-09-14T03:48:48.522Z,98654.75
2022-09-14T03:51:16.354Z,98633.47
2022-09-14T03:53:44.522Z,98610.59
2022-09-14T03:56:17.199Z,98621.25
2022-09-14T03:58:45.509Z,98600.19
2022-09-14T04:01:16.201Z,98598.03
2022-09-14T04:03:43.610Z,98590.72
2022-09-14T04:06:10.783Z,98576.00
2022-09-14T04:08:39.532Z,98566.28
2022-09-14T04:13:46.837Z,98550.88
2022-09-14T04:16:15.213Z,98563.47
2022-09-14T04:18:42.288Z,98492.56
2022-09-14T04:21:13.732Z,98547.56
2022-09-14T04:23:57.049Z,98549.78
2022-09-14T04:26:29.677Z,98525.75
2022-09-14T04:28:57.370Z,98504.00
2022-09-14T04:31:25.358Z,98440.47
2022-09-14T04:34:31.315Z,98430.31
2022-09-14T04:36:58.037Z,98497.88
2022-09-14T04:39:26.392Z,98506.22
2022-09-14T04:41:53.026Z,98495.59
2022-09-14T04:44:19.670Z,98480.28
2022-09-14T04:46:47.149Z,98492.75
2022-09-14T04:49:15.684Z,98492.94
2022-09-14T04:51:42.332Z,98486.16
2022-09-14T04:54:10.178Z,98483.28
2022-09-14T04:56:37.166Z,98480.81
2022-09-14T04:59:04.592Z,98489.41
2022-09-14T05:01:34.615Z,98490.59
2022-09-14T05:04:01.691Z,98481.75
2022-09-14T05:06:30.438Z,98486.34
2022-09-14T05:08:57.920Z,98484.31
2022-09-14T05:11:27.181Z,98501.34
2022-09-14T05:13:55.717Z,98498.53
2022-09-14T05:16:38.786Z,98504.84
2022-09-14T05:19:07.618Z,98495.81
2022-09-14T05:21:36.301Z,98489.59
2022-09-14T05:24:05.321Z,98488.50
2022-09-14T05:26:32.362Z,98491.34
2022-09-14T05:29:01.631Z,98477.50
2022-09-14T05:31:29.518Z,98479.53
2022-09-14T05:33:56.469Z,98481.47
2022-09-14T05:36:28.389Z,98463.44
2022-09-14T05:38:55.261Z,98455.16
2022-09-14T05:41:21.908Z,98470.16
2022-09-14T05:43:48.568Z,98469.63
2022-09-14T05:46:17.293Z,98480.94
2022-09-14T05:48:44.127Z,98487.16
2022-09-14T05:51:15.917Z,98482.75
2022-09-14T05:53:43.974Z,98481.50
2022-09-14T05:56:13.608Z,98486.53
2022-09-14T05:58:41.391Z,98470.69
2022-09-14T06:01:14.994Z,98482.88
2022-09-14T06:03:42.326Z,98473.63
2022-09-14T06:06:10.578Z,98469.97
2022-09-14T06:08:37.957Z,98464.31
2022-09-14T06:11:06.451Z,98463.97
2022-09-14T06:13:33.557Z,98459.28
2022-09-14T06:16:05.365Z,98458.53
2022-09-14T06:18:33.873Z,98450.44
2022-09-14T06:21:00.589Z,98442.22
2022-09-14T06:23:28.474Z,98449.38
2022-09-14T06:25:56.219Z,98447.16
2022-09-14T06:28:24.097Z,98446.50
2022-09-14T06:30:51.057Z,98445.13
2022-09-14T06:33:18.693Z,98452.16
2022-09-14T06:35:57.983Z,98450.88
2022-09-14T06:38:25.217Z,98450.22
2022-09-14T06:40:57.038Z,98444.63
2022-09-14T06:43:28.129Z,98430.72
2022-09-14T06:45:59.038Z,98431.59
2022-09-14T06:48:27.027Z,98422.94
2022-09-14T06:50:53.742Z,98422.81
2022-09-14T06:53:20.362Z,98418.25
2022-09-14T06:55:47.533Z,98423.16
2022-09-14T06:58:14.562Z,98383.00
2022-09-14T07:00:41.200Z,98417.03
2022-09-14T07:03:07.999Z,98409.63
2022-09-14T07:05:34.883Z,98407.78
2022-09-14T07:08:01.790Z,98402.91
2022-09-14T07:10:28.543Z,98391.16
2022-09-14T07:13:12.756Z,98401.31
2022-09-14T07:15:39.439Z,98383.59
2022-09-14T07:18:06.205Z,98369.41
2022-09-14T07:20:33.770Z,98380.75
2022-09-14T07:23:00.369Z,98371.34
2022-09-14T07:25:26.930Z,98351.38
2022-09-14T07:27:53.545Z,98361.91
2022-09-14T07:30:20.581Z,98370.56
2022-09-14T07:32:47.179Z,98371.25
2022-09-14T07:35:13.823Z,98377.31
2022-09-14T07:37:40.454Z,98365.94
2022-09-14T07:40:07.979Z,98360.47
2022-09-14T07:42:34.646Z,98335.72
2022-09-14T07:45:01.313Z,98358.09
2022-09-14T07:47:27.921Z,98365.88
2022-09-14T07:49:54.493Z,98364.19
2022-09-14T07:52:21.223Z,98349.50
2022-09-14T07:54:47.834Z,98352.75
2022-09-14T07:57:14.865Z,98329.38
2022-09-14T07:59:41.655Z,98349.53
2022-09-14T08:02:10.071Z,98347.81
2022-09-14T08:04:37.745Z,98340.22
2022-09-14T08:07:04.400Z,98335.59
2022-09-14T08:09:31.080Z,98329.63
2022-09-14T08:11:57.995Z,98334.66
2022-09-14T08:14:25.416Z,98334.00
2022-09-14T08:16:52.492Z,98349.25
2022-09-14T08:19:21.060Z,98355.13
2022-09-14T08:21:48.530Z,98352.28
2022-09-14T08:24:18.507Z,98351.34
2022-09-14T08:26:45.306Z,98346.22
2022-09-14T08:29:13.700Z,98358.38
2022-09-14T08:31:40.938Z,98350.69
2022-09-14T08:34:07.946Z,98334.19
2022-09-14T08:36:37.598Z,98346.47
2022-09-14T08:39:06.482Z,98348.25
2022-09-14T08:41:43.415Z,98346.84
2022-09-14T08:44:28.837Z,98339.88
2022-09-14T08:47:16.672Z,98345.25
2022-09-14T08:49:47.846Z,98343.03
2022-09-14T08:52:24.576Z,98318.28
2022-09-14T08:54:55.302Z,98331.06
2022-09-14T08:57:44.327Z,98343.56
2022-09-14T09:00:44.350Z,98333.75
2022-09-14T09:03:49.981Z,98327.03
2022-09-14T09:06:41.592Z,98325.75
2022-09-14T09:09:18.208Z,98313.72
2022-09-14T09:11:48.670Z,98328.78
2022-09-14T09:14:31.988Z,98312.63
2022-09-14T09:17:04.710Z,98307.19
2022-09-14T09:19:42.069Z,98313.81
2022-09-14T09:22:22.150Z,98321.78
2022-09-14T09:24:55.362Z,98310.91
2022-09-14T09:27:24.198Z,98316.22
2022-09-14T09:29:51.386Z,98318.31
2022-09-14T09:32:25.601Z,98317.84
2022-09-14T09:34:52.374Z,98319.28
2022-09-14T09:37:22.279Z,98314.19
2022-09-14T09:39:50.787Z,98322.31
2022-09-14T09:42:26.235Z,98315.84
2022-09-14T09:45:02.575Z,98318.66
2022-09-14T09:47:41.610Z,98319.44
2022-09-14T09:50:14.708Z,98320.78
2022-09-14T09:52:51.442Z,98322.72
2022-09-14T09:55:20.310Z,98317.34
2022-09-14T09:57:47.294Z,98316.63
2022-09-14T10:00:14.294Z,98318.28
2022-09-14T10:02:41.695Z,98314.94
2022-09-14T10:05:12.332Z,98320.53
2022-09-14T10:08:02.761Z,98315.28
2022-09-14T10:10:35.493Z,98320.75
2022-09-14T10:13:04.153Z,98318.88
2022-09-14T10:15:33.252Z,98313.69
2022-09-14T10:18:09.434Z,98317.72
2022-09-14T10:20:46.744Z,98315.66
2022-09-14T10:23:19.840Z,98312.00
2022-09-14T10:25:48.337Z,98314.25
2022-09-14T10:28:29.902Z,98322.22
2022-09-14T10:31:19.934Z,98310.06
2022-09-14T10:33:52.617Z,98306.47
2022-09-14T10:36:25.642Z,98312.81
2022-09-14T10:38:58.652Z,98312.56
2022-09-14T10:41:27.219Z,98316.38
2022-09-14T10:44:12.272Z,98301.97
2022-09-14T10:47:04.667Z,98310.78
2022-09-14T10:50:05.919Z,98313.72
2022-09-14T10:52:51.137Z,98307.03
2022-09-14T10:55:42.293Z,98307.31
2022-09-14T10:58:47.584Z,98300.97
2022-09-14T11:01:40.488Z,98305.56
2022-09-14T11:04:22.349Z,98308.78
2022-09-14T11:07:12.474Z,98299.72
2022-09-14T11:09:54.921Z,98299.19
2022-09-14T11:12:40.118Z,98300.88
2022-09-14T11:15:20.398Z,98273.72
2022-09-14T11:17:59.017Z,98289.66
2022-09-14T11:20:43.981Z,98301.00
2022-09-14T11:23:35.781Z,98276.28
2022-09-14T11:26:17.327Z,98304.53
2022-09-14T11:28:48.551Z,98305.09
2022-09-14T11:31:32.391Z,98316.72
2022-09-14T11:34:20.526Z,98316.91
2022-09-14T11:36:55.121Z,98318.81
2022-09-14T11:39:29.413Z,98325.22
2022-09-14T11:42:02.606Z,98333.44
2022-09-14T11:44:37.565Z,98322.09
2022-09-14T11:47:08.005Z,98329.91
2022-09-14T11:49:42.145Z,98304.56
2022-09-14T11:52:19.553Z,98314.84
2022-09-14T11:54:47.037Z,98315.00
2022-09-14T11:57:19.258Z,98309.84
2022-09-14T11:59:51.801Z,98319.28
2022-09-14T12:02:30.560Z,98318.72
2022-09-14T12:05:10.377Z,98325.16
2022-09-14T12:07:40.698Z,98339.69
2022-09-14T12:10:16.803Z,98342.59
2022-09-14T12:12:54.334Z,98334.31
2022-09-14T12:15:30.205Z,98360.09
2022-09-14T12:18:22.056Z,98363.59
2022-09-14T12:20:59.654Z,98372.78
2022-09-14T12:23:30.726Z,98389.44
2022-09-14T12:26:00.029Z,98400.25
2022-09-14T12:28:34.761Z,98412.91
2022-09-14T12:31:02.866Z,98418.88
2022-09-14T12:33:32.640Z,98404.00
2022-09-14T12:35:59.959Z,98394.09
2022-09-14T12:38:49.779Z,98388.94
2022-09-14T12:41:19.358Z,98385.72
2022-09-14T12:43:48.921Z,98385.38
2022-09-14T12:46:21.823Z,98359.03
2022-09-14T12:48:48.570Z,98356.47
2022-09-14T12:51:27.059Z,98349.47
2022-09-14T12:54:09.519Z,98317.50
2022-09-14T12:56:46.991Z,98315.00
2022-09-14T12:59:33.763Z,98299.16
2022-09-14T13:02:21.919Z,98304.16
2022-09-14T13:04:53.356Z,98283.34
2022-09-14T13:07:21.380Z,98317.69
2022-09-14T13:09:54.976Z,98314.56
2022-09-14T13:12:44.944Z,98346.47
2022-09-14T13:15:16.808Z,98358.13
2022-09-14T13:18:01.367Z,98371.22
2022-09-14T13:20:29.615Z,98393.19
2022-09-14T13:22:58.272Z,98382.84
2022-09-14T13:25:36.454Z,98418.16
2022-09-14T13:28:14.611Z,98436.97
2022-09-14T13:30:44.874Z,98431.16
2022-09-14T13:33:18.177Z,98464.84
2022-09-14T13:35:53.527Z,98440.53
2022-09-14T13:38:25.748Z,98480.31
2022-09-14T13:40:54.798Z,98484.00
2022-09-14T13:43:22.403Z,98490.19
2022-09-14T13:45:50.280Z,98485.63
2022-09-14T13:48:17.744Z,98479.97
2022-09-14T13:50:48.327Z,98466.44
2022-09-14T13:53:48.707Z,98460.69
2022-09-14T13:56:31.559Z,98460.34
2022-09-14T13:59:23.832Z,98449.28
2022-09-14T14:01:58.877Z,98422.06
2022-09-14T14:04:30.034Z,98411.44
2022-09-14T14:07:02.936Z,98415.81
2022-09-14T14:09:47.997Z,98402.16
2022-09-14T14:12:22.494Z,98373.63
2022-09-14T14:15:00.106Z,98360.03
2022-09-14T14:17:29.665Z,98353.50
2022-09-14T14:19:58.678Z,98318.94
2022-09-14T14:22:35.544Z,98303.47
2022-09-14T14:25:18.672Z,98297.66
2022-09-14T14:27:47.495Z,98295.31
2022-09-14T14:30:15.621Z,98302.25
2022-09-14T14:32:42.527Z,98298.94
2022-09-14T14:35:30.505Z,98306.72
2022-09-14T14:37:58.235Z,98314.38
2022-09-14T14:40:27.348Z,98288.78
2022-09-14T14:42:54.907Z,98295.88
2022-09-14T14:45:26.470Z,98294.50
2022-09-14T14:47:54.965Z,98298.78
2022-09-14T14:50:30.760Z,98303.81
2022-09-14T14:52:57.639Z,98304.63
2022-09-14T14:55:25.797Z,98317.81
2022-09-14T14:57:52.462Z,98316.72
2022-09-14T15:00:24.267Z,98347.91
2022-09-14T15:02:51.211Z,98351.91
2022-09-14T15:05:18.567Z,98357.88
2022-09-14T15:07:45.909Z,98361.94
2022-09-14T15:10:15.738Z,98363.03
2022-09-14T15:12:42.829Z,98368.97
2022-09-14T15:15:14.140Z,98376.84
2022-09-14T15:17:41.000Z,98370.38
2022-09-14T15:20:08.400Z,98366.91
2022-09-14T15:22:36.258Z,98359.66
2022-09-14T15:25:04.653Z,98366.44
2022-09-14T15:27:31.815Z,98366.03
2022-09-14T15:29:58.378Z,98348.03
2022-09-14T15:32:25.184Z,98366.19
2022-09-14T15:34:54.166Z,98357.97
2022-09-14T15:37:20.794Z,98344.31
2022-09-14T15:39:50.601Z,98356.69
2022-09-14T15:42:18.331Z,98351.41
2022-09-14T15:44:45.172Z,98322.38
2022-09-14T15:47:14.762Z,98305.41
2022-09-14T15:49:42.548Z,98352.47
2022-09-14T15:52:10.625Z,98356.06
2022-09-14T15:54:38.246Z,98360.09
2022-09-14T15:57:07.134Z,98357.56
2022-09-14T15:59:33.780Z,98366.03
2022-09-14T16:02:00.575Z,98350.94
2022-09-14T16:04:27.663Z,98360.09
2022-09-14T16:06:54.432Z,98387.53
2022-09-14T16:09:22.505Z,98398.53
2022-09-14T16:11:49.649Z,98412.19
2022-09-14T16:14:16.492Z,98426.81
2022-09-14T16:16:43.198Z,98435.38
2022-09-14T16:19:12.623Z,98459.38
2022-09-14T16:21:40.409Z,98463.31
2022-09-14T16:24:46.996Z,98459.19
2022-09-14T16:27:13.621Z,98482.53
2022-09-14T16:29:40.738Z,98490.09
2022-09-14T16:32:07.493Z,98489.00
2022-09-14T16:34:34.260Z,98508.84
2022-09-14T16:37:00.919Z,98511.00
2022-09-14T16:39:29.798Z,98511.69
2022-09-14T16:41:56.805Z,98524.50
2022-09-14T16:44:25.134Z,98538.44
2022-09-14T16:46:53.262Z,98548.34
2022-09-14T16:49:26.351Z,98552.63
2022-09-14T16:51:54.533Z,98573.47
2022-09-14T16:54:22.851Z,98587.44
2022-09-14T16:56:49.681Z,98606.19
2022-09-14T16:59:17.871Z,98605.25
2022-09-14T17:01:47.805Z,98613.41
2022-09-14T17:04:21.514Z,98616.66
2022-09-14T17:06:49.281Z,98619.06
2022-09-14T17:09:29.290Z,98635.19
2022-09-14T17:11:57.047Z,98635.25
2022-09-14T17:14:27.321Z,98635.25
2022-09-14T17:16:54.266Z,98619.81
2022-09-14T17:19:20.964Z,98625.47
2022-09-14T17:21:48.515Z,98624.38
2022-09-14T17:24:16.068Z,98630.63
2022-09-14T17:26:42.918Z,98616.47
2022-09-14T17:29:10.452Z,98605.66
2022-09-14T17:31:39.311Z,98630.34
2022-09-14T17:34:07.574Z,98629.13
2022-09-14T17:36:34.245Z,98629.34
2022-09-14T17:39:04.345Z,98631.53
2022-09-14T17:41:33.262Z,98638.56
2022-09-14T17:44:02.818Z,98631.75
2022-09-14T17:46:30.491Z,98637.22
2022-09-14T17:48:58.758Z,98638.16
2022-09-14T17:51:27.208Z,98640.78
2022-09-14T17:53:55.418Z,98638.25
2022-09-14T17:56:25.294Z,98638.91
2022-09-14T17:59:02.395Z,98642.91
2022-09-14T18:01:29.943Z,98624.31
2022-09-14T18:03:59.009Z,98622.53
2022-09-14T18:06:31.161Z,98640.59
2022-09-14T18:09:03.644Z,98624.81
2022-09-14T18:11:31.311Z,98631.88
2022-09-14T18:13:58.083Z,98619.50
2022-09-14T18:16:25.192Z,98566.81
2022-09-14T18:18:52.110Z,98620.91
2022-09-14T18:21:18.858Z,98599.03
2022-09-14T18:23:53.301Z,98615.06
2022-09-14T18:26:20.220Z,98624.31
2022-09-14T18:28:47.340Z,98623.50
2022-09-14T18:31:16.767Z,98610.56
2022-09-14T18:33:50.670Z,98618.50
2022-09-14T18:36:17.525Z,98586.13
2022-09-14T18:38:48.753Z,98589.09
2022-09-14T18:41:16.809Z,98610.03
2022-09-14T18:43:48.570Z,98596.69
2022-09-14T18:46:15.925Z,98613.00
2022-09-14T18:48:45.939Z,98595.16
2022-09-14T18:51:14.037Z,98593.69
2022-09-14T18:53:40.986Z,98593.47
2022-09-14T18:56:10.297Z,98590.03
2022-09-14T18:58:38.596Z,98587.00
2022-09-14T19:01:05.640Z,98563.28
2022-09-14T19:03:32.805Z,98584.94
2022-09-14T19:06:07.477Z,98583.56
2022-09-14T19:08:34.321Z,98578.31
2022-09-14T19:11:08.854Z,98580.09
2022-09-14T19:13:35.688Z,98584.31
2022-09-14T19:16:10.109Z,98592.06
2022-09-14T19:18:37.191Z,98592.41
2022-09-14T19:21:08.420Z,98587.56
2022-09-14T19:23:36.513Z,98571.72
2022-09-14T19:26:05.808Z,98586.50
2022-09-14T19:28:33.668Z,98585.78
2022-09-14T19:31:00.689Z,98598.59
2022-09-14T19:33:27.673Z,98551.34
2022-09-14T19:35:54.346Z,98573.72
2022-09-14T19:38:39.211Z,98579.28
2022-09-14T19:41:06.406Z,98575.69
2022-09-14T19:43:34.098Z,98571.72
2022-09-14T19:46:08.758Z,98569.41
2022-09-14T19:48:35.440Z,98575.69
2022-09-14T19:51:10.338Z,98581.34
2022-09-14T19:53:37.639Z,98577.91
2022-09-14T19:56:06.679Z,98571.09
2022-09-14T19:58:38.493Z,98575.50
2022-09-14T20:01:06.084Z,98570.44
2022-09-14T20:03:33.350Z,98553.13
2022-09-14T20:06:01.727Z,98559.31
2022-09-14T20:08:29.338Z,98566.66
2022-09-14T20:11:28.920Z,98547.78
2022-09-14T20:13:58.040Z,98550.72
2022-09-14T20:16:25.889Z,98558.06
2022-09-14T20:18:52.888Z,98551.44
2022-09-14T20:21:22.190Z,98557.84
2022-09-14T20:24:16.687Z,98554.59
2022-09-14T20:26:49.074Z,98547.56
2022-09-14T20:29:17.475Z,98556.28
2022-09-14T20:31:44.521Z,98555.44
2022-09-14T20:34:11.765Z,98547.03
2022-09-14T20:36:38.838Z,98548.28
2022-09-14T20:39:05.873Z,98552.81
2022-09-14T20:41:34.368Z,98539.16
2022-09-14T20:44:01.178Z,98546.81
2022-09-14T20:46:36.282Z,98522.56
2022-09-14T20:49:04.338Z,98551.13
2022-09-14T20:51:31.608Z,98549.34
2022-09-14T20:53:58.588Z,98542.09
2022-09-14T20:56:28.368Z,98544.72
2022-09-14T20:58:58.474Z,98537.91
2022-09-14T21:01:27.617Z,98534.66
2022-09-14T21:03:55.333Z,98528.84
2022-09-14T21:06:24.238Z,98534.66
2022-09-14T21:08:51.247Z,98533.69
2022-09-14T21:11:25.714Z,98524.97
2022-09-14T21:13:53.777Z,98522.44
2022-09-14T21:16:20.391Z,98530.13
2022-09-14T21:18:48.461Z,98526.78
2022-09-14T21:21:17.444Z,98513.75
2022-09-14T21:23:44.398Z,98518.03
2022-09-14T21:26:12.836Z,98512.88
2022-09-14T21:28:40.966Z,98507.63
2022-09-14T21:31:20.124Z,98508.38
2022-09-14T21:33:49.798Z,98508.28
2022-09-14T21:36:25.074Z,98505.19
2022-09-14T21:38:52.372Z,98501.75
2022-09-14T21:41:19.707Z,98487.59
2022-09-14T21:43:47.202Z,98495.56
2022-09-14T21:46:14.602Z,98510.25
2022-09-14T21:48:41.284Z,98496.72
2022-09-14T21:51:15.495Z,98497.25
2022-09-14T21:53:48.078Z,98498.31
2022-09-14T21:56:16.355Z,98505.97
2022-09-14T21:58:43.780Z,98510.28
2022-09-14T22:01:12.159Z,98513.44
2022-09-14T22:03:39.227Z,98497.91
2022-09-14T22:06:11.132Z,98508.59
2022-09-14T22:08:37.739Z,98505.97
2022-09-14T22:11:04.307Z,98502.19
2022-09-14T22:13:33.723Z,98497.78
2022-09-14T22:16:26.552Z,98496.94
2022-09-14T22:18:58.131Z,98487.91
2022-09-14T22:21:27.280Z,98465.66
2022-09-14T22:23:56.626Z,98495.28
2022-09-14T22:26:26.129Z,98481.41
2022-09-14T22:28:57.330Z,98482.88
2022-09-14T22:31:24.119Z,98466.19
2022-09-14T22:33:51.230Z,98479.94
2022-09-14T22:36:18.019Z,98485.19
2022-09-14T22:38:45.746Z,98481.19
2022-09-14T22:41:19.850Z,98484.97
2022-09-14T22:43:47.099Z,98481.59
2022-09-14T22:46:14.651Z,98472.59
2022-09-14T22:48:41.470Z,98466.31
2022-09-14T22:51:11.366Z,98461.69
2022-09-14T22:53:38.084Z,98460.28
2022-09-14T22:56:19.732Z,98465.44
2022-09-14T22:58:47.278Z,98460.50
2022-09-14T23:01:16.789Z,98454.84
2022-09-14T23:03:43.902Z,98457.66
2022-09-14T23:06:10.923Z,98460.28
2022-09-14T23:08:38.330Z,98460.94
2022-09-14T23:11:08.213Z,98460.94
2022-09-14T23:13:35.920Z,98462.06
2022-09-14T23:16:09.341Z,98463.66
2022-09-14T23:18:35.998Z,98461.22
2022-09-14T23:21:03.763Z,98465.31
2022-09-14T23:23:30.397Z,98453.88
2022-09-14T23:26:02.458Z,98468.13
2022-09-14T23:28:29.188Z,98444.19
2022-09-14T23:30:55.811Z,98466.75
2022-09-14T23:33:22.448Z,98465.28
2022-09-14T23:35:49.741Z,98460.03
2022-09-14T23:38:16.429Z,98467.06
2022-09-14T23:40:43.180Z,98464.44
2022-09-14T23:43:10.270Z,98460.13
2022-09-14T23:45:37.018Z,98465.16
2022-09-14T23:48:04.031Z,98458.88
2022-09-14T23:50:31.725Z,98445.56
2022-09-14T23:52:58.329Z,98454.13
2022-09-14T23:55:25.214Z,98467.47
2022-09-14T23:57:51.991Z,98457.06
